X  Stänga Metar väderdata för luftfart     ESNL Lycksele Airport
Temperatur
31°C Temperatur
10°C Daggpunkt
27% Fuktighet



Vind
4 M/S
8 MPH
13 KM/T
7 KTS



120°
ÖSÖ
Nuvarande omständigheter

Delvis molnigt Delvis molnigt
Tryck 1016.92 (hPa) - 30.03 (inHg)
Synlighet 6.2 (mil) - 10 (km)
Flygplats
Flygplatskod ESNL

Plats: Lycksele Airport
Distans: 35 (km)

Metar:
ESNL 261320Z AUTO 12007KT 080V150 9999 FEW085/// 31/10 Q1017

Tid: 2022-06-26 15:20 CEST